Time;durP1;ratioP1;P1;durP2;ratioP2;P2;SDS_P1;SDS_P2;PMS_P1;PMS_P2;Temp;Humidity;BMP_temperature;BMP_pressure;BME280_temperature;BME280_humidity;BME280_pressure;Samples;Min_cycle;Max_cycle;Signal;HPM_P1;HPM_P2
2023/10/11 00:01:39;;;;;;;30.27;7.80;;;17.00;99.90;;;;;;4249143;27;20046;-82
2023/10/11 00:03:52;;;;;;;28.92;9.93;;;17.00;99.90;;;;;;4249190;27;20047;-81
2023/10/11 00:05:53;;;;;;;31.48;10.75;;;17.00;99.90;;;;;;4231092;28;20043;-81
2023/10/11 00:07:57;;;;;;;26.20;8.57;;;17.00;99.90;;;;;;4248873;27;20039;-81
2023/10/11 00:09:58;;;;;;;28.48;9.73;;;17.00;99.90;;;;;;4249277;27;20043;-81
2023/10/11 00:12:07;;;;;;;27.48;9.20;;;17.00;99.90;;;;;;4249260;27;20081;-81
2023/10/11 00:14:08;;;;;;;27.23;9.90;;;17.00;99.90;;;;;;4248820;27;20126;-81
2023/10/11 00:16:10;;;;;;;30.98;9.40;;;17.00;99.90;;;;;;4248727;27;20509;-81
2023/10/11 00:18:11;;;;;;;28.55;9.18;;;17.00;99.90;;;;;;4249043;27;20068;-81
2023/10/11 00:20:28;;;;;;;28.95;10.07;;;17.00;99.90;;;;;;4248325;27;20122;-80
2023/10/11 00:22:28;;;;;;;30.15;9.55;;;17.00;99.90;;;;;;4230318;28;20079;-81
2023/10/11 00:24:29;;;;;;;30.08;9.75;;;17.00;99.90;;;;;;4248580;27;20101;-81
2023/10/11 00:26:30;;;;;;;33.08;9.38;;;17.00;99.90;;;;;;4248977;27;20538;-81
2023/10/11 00:28:31;;;;;;;26.63;10.02;;;17.00;99.90;;;;;;4248802;27;20559;-81
2023/10/11 00:30:36;;;;;;;26.00;9.40;;;17.00;99.90;;;;;;4248680;27;20126;-81
2023/10/11 00:32:37;;;;;;;26.60;9.68;;;17.10;99.90;;;;;;4230337;28;20051;-81
2023/10/11 00:34:38;;;;;;;31.55;8.23;;;17.10;99.90;;;;;;4248318;27;20039;-81
2023/10/11 00:36:45;;;;;;;27.33;10.00;;;17.10;99.90;;;;;;4248831;27;20118;-83
2023/10/11 00:38:50;;;;;;;30.42;9.18;;;17.00;99.90;;;;;;4229880;28;20062;-81
2023/10/11 00:41:12;;;;;;;34.38;9.93;;;17.10;99.90;;;;;;4248393;27;20093;-81
2023/10/11 00:43:16;;;;;;;28.60;8.90;;;17.10;99.90;;;;;;4248191;27;20039;-82
2023/10/11 00:45:17;;;;;;;26.58;9.35;;;17.10;99.90;;;;;;4248601;27;20138;-81
2023/10/11 00:47:18;;;;;;;33.00;10.27;;;17.10;99.90;;;;;;4230196;28;20047;-82
2023/10/11 00:49:20;;;;;;;36.42;9.43;;;17.10;99.90;;;;;;4248375;27;20118;-81
2023/10/11 00:51:29;;;;;;;28.88;9.27;;;17.10;99.90;;;;;;4248149;27;20058;-81
2023/10/11 00:53:34;;;;;;;28.92;9.07;;;17.10;99.90;;;;;;4248193;27;20043;-81
2023/10/11 00:55:36;;;;;;;35.83;10.85;;;17.10;99.90;;;;;;4229694;28;20491;-81
2023/10/11 00:57:36;;;;;;;33.92;10.60;;;17.10;99.90;;;;;;4248442;27;20035;-81
2023/10/11 00:59:38;;;;;;;27.25;9.32;;;17.10;99.90;;;;;;4247349;27;20054;-82
2023/10/11 01:01:40;;;;;;;36.55;9.60;;;17.10;99.90;;;;;;4248345;27;20110;-82
2023/10/11 01:03:41;;;;;;;30.40;9.48;;;17.10;99.90;;;;;;4248362;27;20039;-81
2023/10/11 01:05:43;;;;;;;30.73;9.05;;;17.10;99.90;;;;;;4248355;27;20113;-81
2023/10/11 01:07:45;;;;;;;30.95;9.63;;;17.10;99.90;;;;;;4248277;27;20051;-81
2023/10/11 01:09:46;;;;;;;30.10;9.35;;;17.10;99.90;;;;;;4247888;27;20103;-82
2023/10/11 01:11:48;;;;;;;32.25;9.60;;;17.10;99.90;;;;;;4248379;27;20487;-82
2023/10/11 01:13:51;;;;;;;37.13;10.40;;;17.10;99.90;;;;;;4248040;27;20046;-81
2023/10/11 01:15:52;;;;;;;30.30;10.57;;;17.00;99.90;;;;;;4248346;27;20483;-82
2023/10/11 01:17:56;;;;;;;28.92;9.48;;;17.00;99.90;;;;;;4248135;27;20046;-82
2023/10/11 01:19:57;;;;;;;24.05;9.65;;;17.00;99.90;;;;;;4247795;27;20053;-82
2023/10/11 01:21:59;;;;;;;25.17;8.85;;;17.00;99.90;;;;;;4247512;27;20043;-82
2023/10/11 01:24:00;;;;;;;28.30;9.77;;;17.00;99.90;;;;;;4247747;27;20054;-81
2023/10/11 01:26:06;;;;;;;29.13;9.27;;;17.00;99.90;;;;;;4247875;27;20488;-81
2023/10/11 01:28:07;;;;;;;28.05;9.52;;;17.00;99.90;;;;;;4248082;27;20046;-82
2023/10/11 01:30:09;;;;;;;37.40;9.57;;;17.00;99.90;;;;;;4229710;28;20488;-81
2023/10/11 01:32:10;;;;;;;32.78;10.30;;;17.00;99.90;;;;;;4248129;27;20118;-81
2023/10/11 01:34:14;;;;;;;28.02;9.43;;;17.00;99.90;;;;;;4234036;28;20075;-81
2023/10/11 01:36:15;;;;;;;27.23;9.18;;;17.00;99.90;;;;;;4230732;28;20039;-81
2023/10/11 01:38:17;;;;;;;27.55;9.15;;;17.00;99.90;;;;;;4213042;28;20048;-81
2023/10/11 01:40:21;;;;;;;34.10;10.63;;;17.00;99.90;;;;;;4231305;28;20047;-81
2023/10/11 01:42:23;;;;;;;38.20;10.40;;;17.00;99.90;;;;;;4231431;28;20038;-82
2023/10/11 01:44:24;;;;;;;30.17;9.05;;;16.90;99.90;;;;;;4212688;28;20051;-81
2023/10/11 01:46:34;;;;;;;30.77;8.80;;;17.00;99.90;;;;;;4230764;28;20039;-82
2023/10/11 01:48:35;;;;;;;26.67;9.55;;;17.00;99.90;;;;;;4230805;28;20043;-81
2023/10/11 01:50:37;;;;;;;36.45;9.18;;;17.00;99.90;;;;;;4233451;28;20138;-81
2023/10/11 01:52:38;;;;;;;33.72;9.80;;;17.00;99.90;;;;;;4243542;27;20075;-82
2023/10/11 01:54:39;;;;;;;29.80;9.73;;;17.00;99.90;;;;;;4233232;28;20048;-82
2023/10/11 01:56:39;;;;;;;27.05;9.18;;;17.00;99.90;;;;;;4232881;28;20059;-82
2023/10/11 01:58:42;;;;;;;27.73;8.85;;;16.90;99.90;;;;;;4251056;27;20118;-82
2023/10/11 02:00:43;;;;;;;25.98;8.45;;;16.90;99.90;;;;;;4251391;27;20043;-82
2023/10/11 02:02:47;;;;;;;31.95;10.07;;;16.90;99.90;;;;;;4233159;28;20134;-82
2023/10/11 02:04:49;;;;;;;32.15;10.18;;;16.90;99.90;;;;;;4251346;27;20043;-82
2023/10/11 02:06:50;;;;;;;28.98;9.65;;;16.90;99.90;;;;;;4251294;27;20130;-82
2023/10/11 02:08:51;;;;;;;25.38;8.77;;;16.90;99.90;;;;;;4251243;27;20050;-82
2023/10/11 02:10:52;;;;;;;34.55;9.93;;;16.90;99.90;;;;;;4227418;28;20052;-81
2023/10/11 02:12:57;;;;;;;29.42;9.00;;;16.90;99.90;;;;;;4233508;28;20043;-82
2023/10/11 02:15:01;;;;;;;26.60;8.32;;;16.90;99.90;;;;;;4250775;27;20050;-81
2023/10/11 02:17:04;;;;;;;37.45;9.80;;;16.90;99.90;;;;;;4232671;28;20055;-81
2023/10/11 02:19:05;;;;;;;32.85;9.52;;;16.90;99.90;;;;;;4251232;27;20452;-83
2023/10/11 02:21:06;;;;;;;28.75;8.25;;;16.90;99.90;;;;;;4251171;27;20122;-83
2023/10/11 02:23:07;;;;;;;32.00;9.93;;;16.90;99.90;;;;;;4250608;27;20054;-83
2023/10/11 02:25:13;;;;;;;34.65;9.25;;;16.90;99.90;;;;;;4251409;27;20114;-83
2023/10/11 02:27:17;;;;;;;24.42;8.15;;;16.90;99.90;;;;;;4245649;27;20067;-83
2023/10/11 02:29:21;;;;;;;28.95;9.43;;;16.90;99.90;;;;;;4252148;27;20372;-83
2023/10/11 02:31:26;;;;;;;29.95;8.98;;;16.90;99.90;;;;;;4252191;27;20040;-83
2023/10/11 02:33:31;;;;;;;33.45;8.40;;;16.90;99.90;;;;;;4250929;27;20043;-83
2023/10/11 02:35:34;;;;;;;27.15;8.93;;;16.80;99.90;;;;;;4233058;28;20039;-81
2023/10/11 02:37:36;;;;;;;27.77;8.88;;;16.90;99.90;;;;;;4232588;28;20118;-83
2023/10/11 02:39:43;;;;;;;29.23;8.80;;;16.80;99.90;;;;;;4232485;28;20089;-81
2023/10/11 02:41:46;;;;;;;25.83;8.40;;;16.80;99.90;;;;;;4251184;27;20526;-81
2023/10/11 02:43:49;;;;;;;26.67;8.18;;;16.80;99.90;;;;;;4250874;27;20043;-81
2023/10/11 02:45:50;;;;;;;32.08;9.32;;;16.80;99.90;;;;;;4232998;28;20050;-81
2023/10/11 02:48:02;;;;;;;24.67;9.45;;;16.80;99.90;;;;;;4244686;27;20495;-81
2023/10/11 02:50:07;;;;;;;30.70;9.82;;;16.80;99.90;;;;;;4200133;28;20040;-81
2023/10/11 02:52:07;;;;;;;24.63;7.88;;;16.80;99.90;;;;;;4215566;28;20119;-81
2023/10/11 02:54:14;;;;;;;26.75;8.13;;;16.80;99.90;;;;;;4233666;28;20034;-81
2023/10/11 02:56:15;;;;;;;23.42;7.47;;;16.80;99.90;;;;;;4233553;28;20051;-81
2023/10/11 02:58:21;;;;;;;21.42;7.35;;;16.80;99.90;;;;;;4233598;27;20091;-81
2023/10/11 03:00:22;;;;;;;24.85;7.40;;;16.70;99.90;;;;;;4232896;28;20520;-81
2023/10/11 03:02:29;;;;;;;24.15;8.20;;;16.70;99.90;;;;;;4233271;28;20047;-81
2023/10/11 03:04:43;;;;;;;26.65;8.38;;;16.70;99.90;;;;;;4233058;27;20074;-81
2023/10/11 03:06:49;;;;;;;25.20;8.25;;;16.70;99.90;;;;;;4233462;28;20044;-81
2023/10/11 03:08:53;;;;;;;23.45;8.10;;;16.70;99.90;;;;;;4233338;28;20047;-81
2023/10/11 03:10:53;;;;;;;24.13;8.50;;;16.70;99.90;;;;;;4233014;28;20047;-81
2023/10/11 03:12:54;;;;;;;27.00;8.30;;;16.70;99.90;;;;;;4232741;28;20044;-81
2023/10/11 03:14:55;;;;;;;25.00;8.18;;;16.70;99.90;;;;;;4215038;28;20127;-82
2023/10/11 03:16:56;;;;;;;27.63;8.20;;;16.70;99.90;;;;;;4233145;28;20500;-82
2023/10/11 03:18:59;;;;;;;25.95;8.75;;;16.70;99.90;;;;;;4232942;28;20063;-82
2023/10/11 03:21:20;;;;;;;29.23;8.63;;;16.70;99.90;;;;;;4232407;27;20549;-82
2023/10/11 03:23:25;;;;;;;30.30;9.50;;;16.70;99.90;;;;;;4221345;28;20043;-81
2023/10/11 03:25:29;;;;;;;30.02;9.00;;;16.60;99.90;;;;;;4214808;28;20051;-82
2023/10/11 03:27:36;;;;;;;24.48;7.70;;;16.70;99.90;;;;;;4250226;27;20098;-82
2023/10/11 03:29:40;;;;;;;28.77;9.32;;;16.70;99.90;;;;;;4231510;28;20051;-82
2023/10/11 03:31:40;;;;;;;33.38;9.13;;;16.70;99.90;;;;;;4249674;27;20392;-81
2023/10/11 03:33:41;;;;;;;28.52;8.13;;;16.60;99.90;;;;;;4231391;28;20075;-82
2023/10/11 03:35:44;;;;;;;38.45;9.48;;;16.60;99.90;;;;;;4249981;27;20035;-81
2023/10/11 03:37:57;;;;;;;23.42;8.77;;;16.70;99.90;;;;;;4250011;27;20043;-82
2023/10/11 03:39:57;;;;;;;25.80;8.55;;;16.60;99.90;;;;;;4249093;27;20153;-82
2023/10/11 03:42:12;;;;;;;27.40;8.80;;;16.60;99.90;;;;;;4226424;28;20113;-81
2023/10/11 03:44:22;;;;;;;28.23;8.43;;;16.60;99.90;;;;;;4249143;27;20114;-81
2023/10/11 03:46:28;;;;;;;18.02;7.97;;;16.60;99.90;;;;;;4249601;27;20054;-82
2023/10/11 03:48:30;;;;;;;31.52;9.77;;;16.60;99.90;;;;;;4249741;27;20050;-82
2023/10/11 03:50:34;;;;;;;23.85;8.10;;;16.60;99.90;;;;;;4249127;27;20059;-82
2023/10/11 03:52:40;;;;;;;34.38;8.60;;;16.60;99.90;;;;;;4231453;28;20044;-81
2023/10/11 03:54:42;;;;;;;33.33;9.38;;;16.60;99.90;;;;;;4241060;27;20027;-81
2023/10/11 03:56:51;;;;;;;25.15;8.48;;;16.60;99.90;;;;;;4214399;28;20043;-81
2023/10/11 03:58:52;;;;;;;26.63;8.63;;;16.60;99.90;;;;;;4201727;28;20036;-82
2023/10/11 04:00:53;;;;;;;28.85;8.63;;;16.60;99.90;;;;;;4244787;27;20043;-80
2023/10/11 04:03:05;;;;;;;27.17;9.65;;;16.60;99.90;;;;;;4253096;27;20090;-80
2023/10/11 04:05:06;;;;;;;28.80;8.10;;;16.60;99.90;;;;;;4249605;27;20046;-81
2023/10/11 04:07:12;;;;;;;28.27;8.00;;;16.50;99.90;;;;;;4246615;27;20393;-81
2023/10/11 04:09:22;;;;;;;25.02;8.27;;;16.50;99.90;;;;;;4246432;27;20118;-82
2023/10/11 04:11:37;;;;;;;33.63;9.90;;;16.50;99.90;;;;;;4249334;27;20414;-81
2023/10/11 04:13:39;;;;;;;32.70;9.00;;;16.60;99.90;;;;;;4248636;27;20047;-82
2023/10/11 04:15:40;;;;;;;29.65;8.70;;;16.50;99.90;;;;;;4249287;27;20039;-81
2023/10/11 04:17:41;;;;;;;24.90;8.13;;;16.50;99.90;;;;;;4248922;27;20502;-81
2023/10/11 04:19:43;;;;;;;29.17;9.38;;;16.50;99.90;;;;;;4249113;27;20051;-81
2023/10/11 04:23:47;;;;;;;22.48;7.93;;;16.50;99.90;;;;;;4242732;27;20058;-82
2023/10/11 04:25:48;;;;;;;25.05;7.53;;;16.50;99.90;;;;;;4246892;27;20244;-81
2023/10/11 04:28:12;;;;;;;28.08;7.65;;;16.50;99.90;;;;;;4236264;27;20079;-82
2023/10/11 04:30:23;;;;;;;26.73;8.20;;;16.50;99.90;;;;;;4220662;28;20072;-82
2023/10/11 04:32:41;;;;;;;23.17;8.70;;;16.50;99.90;;;;;;4232068;28;20079;-82
2023/10/11 04:34:55;;;;;;;19.23;8.25;;;17.10;99.90;;;;;;4213467;28;20539;-83
2023/10/11 04:36:55;;;;;;;31.60;7.78;;;16.50;99.90;;;;;;4231577;28;20083;-82
2023/10/11 04:39:14;;;;;;;26.52;8.38;;;16.50;99.90;;;;;;4231491;28;20039;-82
2023/10/11 04:41:19;;;;;;;30.00;7.50;;;16.50;99.90;;;;;;4213726;28;20481;-82
2023/10/11 04:43:20;;;;;;;29.63;8.38;;;16.50;99.90;;;;;;4232955;27;20439;-83
2023/10/11 04:45:29;;;;;;;23.48;7.32;;;16.50;99.90;;;;;;4231619;28;20488;-82
2023/10/11 04:47:51;;;;;;;26.38;7.00;;;16.50;99.90;;;;;;4231552;28;20051;-82
2023/10/11 04:49:54;;;;;;;33.63;8.55;;;16.50;99.90;;;;;;4231090;28;20423;-82
2023/10/11 04:51:56;;;;;;;25.33;8.07;;;16.50;99.90;;;;;;4231176;28;20044;-82
2023/10/11 04:53:58;;;;;;;24.20;7.10;;;16.50;99.90;;;;;;4231452;28;20092;-82
2023/10/11 04:55:59;;;;;;;22.63;7.47;;;16.50;99.90;;;;;;4213592;28;20119;-82
2023/10/11 04:58:07;;;;;;;23.15;7.70;;;16.50;99.90;;;;;;4214034;28;20404;-82
2023/10/11 05:00:17;;;;;;;28.65;7.78;;;16.50;99.90;;;;;;4232405;27;20123;-82
2023/10/11 05:02:28;;;;;;;20.25;6.80;;;16.50;99.90;;;;;;4248255;27;20049;-82
2023/10/11 05:04:41;;;;;;;27.70;7.80;;;16.50;99.90;;;;;;4232063;28;20048;-82
2023/10/11 05:06:43;;;;;;;27.27;8.18;;;16.50;99.90;;;;;;4230481;28;20051;-82
2023/10/11 05:08:54;;;;;;;24.75;7.60;;;16.50;99.90;;;;;;4249072;27;20556;-82
2023/10/11 05:11:02;;;;;;;21.27;6.65;;;16.60;99.90;;;;;;4230582;28;20058;-82
2023/10/11 05:13:12;;;;;;;26.33;8.23;;;16.60;99.90;;;;;;4250263;27;20067;-81
2023/10/11 05:15:15;;;;;;;28.38;7.47;;;16.60;99.90;;;;;;4253017;27;20099;-81
2023/10/11 05:19:20;;;;;;;24.98;7.05;;;16.60;99.90;;;;;;4251741;27;20050;-82
2023/10/11 05:21:26;;;;;;;24.10;7.22;;;16.60;99.90;;;;;;4248638;27;20039;-82
2023/10/11 05:25:58;;;;;;;21.73;5.90;;;16.60;99.90;;;;;;4208673;28;20054;-82
2023/10/11 05:28:21;;;;;;;21.75;7.32;;;16.60;99.90;;;;;;4248450;27;20100;-82
2023/10/11 05:32:32;;;;;;;28.38;7.28;;;16.60;99.90;;;;;;4248059;28;20043;-82
2023/10/11 05:35:07;;;;;;;25.02;8.13;;;16.60;99.90;;;;;;4245072;27;20066;-82
2023/10/11 05:51:05;;;;;;;19.70;6.88;;;16.70;99.90;;;;;;4230787;28;20082;-82
2023/10/11 05:53:06;;;;;;;22.75;7.25;;;16.70;99.90;;;;;;4245561;28;20092;-81
2023/10/11 05:55:07;;;;;;;37.78;7.82;;;16.80;99.90;;;;;;4229611;28;20065;-82
2023/10/11 05:57:08;;;;;;;22.98;7.18;;;16.80;99.90;;;;;;4247785;28;20118;-82
2023/10/11 05:59:10;;;;;;;24.15;9.27;;;16.80;99.90;;;;;;4247744;28;20446;-82
2023/10/11 06:01:13;;;;;;;24.83;7.88;;;16.80;99.90;;;;;;4228912;28;20086;-82
2023/10/11 06:03:15;;;;;;;28.58;7.68;;;16.80;99.90;;;;;;4247698;28;20051;-82
2023/10/11 06:05:17;;;;;;;29.45;8.07;;;16.70;99.90;;;;;;4247392;28;20054;-83
2023/10/11 06:07:19;;;;;;;24.52;7.28;;;16.80;99.90;;;;;;4228347;28;20423;-82
2023/10/11 06:09:26;;;;;;;20.70;7.57;;;16.80;99.90;;;;;;4230199;28;20467;-82
2023/10/11 06:11:36;;;;;;;21.88;6.53;;;16.80;99.90;;;;;;4234250;28;20039;-82
2023/10/11 06:13:37;;;;;;;25.83;7.07;;;16.90;99.90;;;;;;4244696;28;20053;-82
2023/10/11 06:15:41;;;;;;;23.75;8.02;;;16.80;99.90;;;;;;4230416;28;20109;-82
2023/10/11 06:17:42;;;;;;;18.48;6.55;;;16.80;99.90;;;;;;4231289;28;20044;-82
2023/10/11 06:19:53;;;;;;;26.48;7.38;;;16.80;99.90;;;;;;4247323;28;20522;-81
2023/10/11 06:21:56;;;;;;;35.47;7.50;;;16.80;99.90;;;;;;4247629;28;20127;-80
2023/10/11 06:23:57;;;;;;;22.38;7.18;;;16.80;99.90;;;;;;4247811;28;20403;-81
2023/10/11 06:25:59;;;;;;;26.05;7.22;;;16.90;99.90;;;;;;4248378;28;20043;-81
2023/10/11 06:30:06;;;;;;;25.10;7.28;;;16.90;99.90;;;;;;4245014;28;20543;-81
2023/10/11 06:32:11;;;;;;;34.08;10.15;;;16.90;99.90;;;;;;4229455;28;20086;-80
2023/10/11 06:34:15;;;;;;;23.10;6.45;;;16.90;99.90;;;;;;4244088;28;20047;-80
2023/10/11 06:36:18;;;;;;;28.33;8.15;;;16.90;99.90;;;;;;4248964;27;20043;-80
2023/10/11 06:38:21;;;;;;;22.38;7.53;;;16.90;99.90;;;;;;4228869;28;20122;-80
2023/10/11 06:43:05;;;;;;;19.05;6.43;;;16.90;99.90;;;;;;4214600;28;20118;-80
2023/10/11 06:45:16;;;;;;;22.05;7.07;;;17.00;99.90;;;;;;4197797;28;20951;-80
2023/10/11 06:47:19;;;;;;;23.95;7.10;;;16.90;99.90;;;;;;4207825;28;20353;-81
2023/10/11 06:49:20;;;;;;;21.58;7.75;;;17.00;99.90;;;;;;4233136;28;20055;-81
2023/10/11 06:51:22;;;;;;;22.13;7.45;;;17.00;99.90;;;;;;4233225;28;20054;-81
2023/10/11 06:53:23;;;;;;;17.38;6.20;;;17.00;99.90;;;;;;4244477;27;20451;-81
2023/10/11 06:55:25;;;;;;;25.60;7.40;;;17.10;99.90;;;;;;4249928;27;20047;-81
2023/10/11 06:57:26;;;;;;;32.55;8.38;;;17.10;99.90;;;;;;4250268;27;20058;-80
2023/10/11 06:59:28;;;;;;;19.17;6.88;;;17.10;99.90;;;;;;4250154;27;20047;-79
2023/10/11 07:01:30;;;;;;;18.92;7.13;;;17.60;99.90;;;;;;4244634;27;20039;-80
2023/10/11 07:03:38;;;;;;;26.67;7.45;;;17.10;99.90;;;;;;4249499;27;20049;-80
2023/10/11 07:05:41;;;;;;;23.17;7.05;;;17.10;99.90;;;;;;4235898;27;20044;-80
2023/10/11 07:07:47;;;;;;;31.48;7.25;;;17.10;99.90;;;;;;4214445;28;20044;-80
2023/10/11 07:09:57;;;;;;;25.15;7.57;;;17.70;99.90;;;;;;4232808;28;20099;-80
2023/10/11 07:12:28;;;;;;;19.58;6.57;;;17.20;99.90;;;;;;4232809;28;20047;-80
2023/10/11 07:14:28;;;;;;;23.75;7.10;;;17.00;99.90;;;;;;4232450;28;20051;-80
2023/10/11 07:16:31;;;;;;;19.90;6.05;;;17.30;99.90;;;;;;4242554;27;20043;-81
2023/10/11 07:18:39;;;;;;;23.42;6.68;;;17.40;99.90;;;;;;4249064;27;20039;-81
2023/10/11 07:20:49;;;;;;;17.70;6.22;;;17.40;99.90;;;;;;4218555;28;20040;-80
2023/10/11 07:22:50;;;;;;;25.23;6.97;;;17.40;99.90;;;;;;4232836;28;20043;-80
2023/10/11 07:24:55;;;;;;;20.42;6.25;;;17.30;99.90;;;;;;4214828;28;20056;-81
2023/10/11 07:27:08;;;;;;;21.05;5.40;;;17.30;99.90;;;;;;4232371;28;20039;-81
2023/10/11 07:29:09;;;;;;;23.73;6.32;;;17.60;99.90;;;;;;4232372;27;20048;-82
2023/10/11 07:31:16;;;;;;;21.48;6.53;;;17.50;99.90;;;;;;4225535;28;20055;-81
2023/10/11 07:33:18;;;;;;;20.92;6.28;;;17.40;99.90;;;;;;4215610;28;20048;-82
2023/10/11 07:35:27;;;;;;;22.33;6.65;;;17.40;99.90;;;;;;4232016;27;20043;-81
2023/10/11 07:37:28;;;;;;;25.42;6.45;;;17.60;99.90;;;;;;4231622;28;20118;-82
2023/10/11 07:39:33;;;;;;;19.92;5.93;;;17.40;99.90;;;;;;4231050;28;20121;-82
2023/10/11 07:41:34;;;;;;;22.15;6.03;;;17.50;99.90;;;;;;4249629;27;20047;-82
2023/10/11 07:43:35;;;;;;;21.50;7.25;;;17.50;99.90;;;;;;4249528;27;20061;-82
2023/10/11 07:45:38;;;;;;;17.27;6.35;;;16.30;99.90;;;;;;4249546;27;20424;-82
2023/10/11 07:47:45;;;;;;;20.10;5.88;;;17.60;99.90;;;;;;4230358;28;20075;-83
2023/10/11 07:49:49;;;;;;;26.95;7.75;;;17.50;99.90;;;;;;4249231;27;20889;-82
2023/10/11 07:52:01;;;;;;;21.63;6.43;;;17.60;99.90;;;;;;4247785;27;20046;-82
2023/10/11 07:54:06;;;;;;;19.13;6.57;;;17.60;99.90;;;;;;4249311;27;20123;-82
2023/10/11 07:56:08;;;;;;;20.08;6.13;;;17.70;99.90;;;;;;4249522;27;20043;-84
2023/10/11 07:58:10;;;;;;;19.13;5.78;;;17.70;99.90;;;;;;4249332;27;20376;-85
2023/10/11 08:00:20;;;;;;;23.63;7.10;;;17.70;99.90;;;;;;4249466;27;20054;-83
2023/10/11 08:02:29;;;;;;;21.27;6.72;;;17.70;99.90;;;;;;4249376;27;20082;-83
2023/10/11 08:04:29;;;;;;;25.50;7.43;;;17.70;99.90;;;;;;4249347;27;20072;-83
2023/10/11 08:06:30;;;;;;;20.00;6.88;;;17.70;99.90;;;;;;4249227;27;20047;-83
2023/10/11 08:08:31;;;;;;;26.25;7.20;;;17.70;99.90;;;;;;4243265;27;20045;-84
2023/10/11 08:10:35;;;;;;;24.75;7.22;;;17.80;99.90;;;;;;4248643;27;20149;-83
2023/10/11 08:12:38;;;;;;;21.02;6.65;;;17.70;99.90;;;;;;4249280;27;20039;-83
2023/10/11 08:14:44;;;;;;;16.17;6.55;;;;;;;;;;4249101;27;20105;-83
2023/10/11 08:16:47;;;;;;;19.60;6.82;;;;;;;;;;4237602;27;20146;-83
2023/10/11 08:18:49;;;;;;;25.23;7.45;;;;;;;;;;4248402;27;20047;-83
2023/10/11 08:20:50;;;;;;;27.30;6.15;;;;;;;;;;4248196;27;20039;-83
2023/10/11 08:22:55;;;;;;;23.63;6.57;;;;;;;;;;4247297;27;20035;-83
2023/10/11 08:25:01;;;;;;;22.42;6.50;;;;;;;;;;4247025;27;20458;-83
2023/10/11 08:27:08;;;;;;;20.60;6.13;;;;;;;;;;4246759;27;20100;-83
2023/10/11 08:29:28;;;;;;;18.38;6.57;;;;;;;;;;4241496;27;20622;-83
2023/10/11 08:33:35;;;;;;;25.42;7.55;;;17.80;99.90;;;;;;4228858;28;20051;-82
2023/10/11 08:35:36;;;;;;;18.02;5.80;;;17.70;99.90;;;;;;4247643;27;20536;-83
2023/10/11 08:37:37;;;;;;;20.08;6.75;;;17.70;99.90;;;;;;4248557;27;20043;-83
2023/10/11 08:39:45;;;;;;;13.90;5.85;;;17.70;99.90;;;;;;4230442;28;20527;-83
2023/10/11 08:41:46;;;;;;;15.15;5.85;;;17.70;99.90;;;;;;4230276;28;20480;-83
2023/10/11 08:43:54;;;;;;;19.15;6.40;;;17.70;99.90;;;;;;4248321;27;20045;-83
2023/10/11 08:46:01;;;;;;;14.00;5.05;;;17.70;99.90;;;;;;4213367;28;20483;-83
2023/10/11 08:48:06;;;;;;;16.25;5.30;;;17.70;99.90;;;;;;4234891;27;20051;-83
2023/10/11 08:50:09;;;;;;;23.17;6.65;;;17.70;99.90;;;;;;4231380;28;20059;-83
2023/10/11 08:52:10;;;;;;;11.25;4.72;;;17.70;99.90;;;;;;4231596;28;20399;-83
2023/10/11 08:54:13;;;;;;;20.98;6.90;;;17.70;99.90;;;;;;4220427;28;20479;-83
2023/10/11 08:56:17;;;;;;;14.30;5.63;;;17.70;99.90;;;;;;4248325;27;20043;-83
2023/10/11 08:58:27;;;;;;;13.45;4.90;;;17.70;99.90;;;;;;4247753;27;20054;-83
2023/10/11 09:00:32;;;;;;;22.48;5.78;;;17.70;99.90;;;;;;4248279;27;20087;-83
2023/10/11 09:02:33;;;;;;;19.15;5.35;;;17.80;99.90;;;;;;4248478;27;20059;-83
2023/10/11 09:04:35;;;;;;;19.63;5.40;;;17.70;99.90;;;;;;4248300;27;20555;-83
2023/10/11 09:06:36;;;;;;;16.17;6.10;;;17.70;99.90;;;;;;4248222;27;20602;-83
2023/10/11 09:08:37;;;;;;;10.82;4.88;;;17.70;99.90;;;;;;4248311;27;20046;-83
2023/10/11 09:10:37;;;;;;;14.50;4.50;;;17.70;99.90;;;;;;4248244;27;20130;-83
2023/10/11 09:12:48;;;;;;;11.73;3.97;;;17.60;99.90;;;;;;4241630;27;20047;-83
2023/10/11 09:14:58;;;;;;;10.98;4.25;;;;;;;;;;4248052;27;20039;-83
2023/10/11 09:17:19;;;;;;;9.68;3.70;;;17.60;99.90;;;;;;4248566;27;20051;-83
2023/10/11 09:19:20;;;;;;;7.85;4.03;;;17.60;99.90;;;;;;4248113;27;20159;-83
2023/10/11 09:21:22;;;;;;;9.45;4.03;;;17.70;99.90;;;;;;4248173;27;20092;-83
2023/10/11 09:23:38;;;;;;;10.50;4.20;;;17.70;99.90;;;;;;4247531;27;20410;-83
2023/10/11 09:25:57;;;;;;;9.73;3.97;;;17.70;99.90;;;;;;4247757;27;20102;-83
2023/10/11 09:27:58;;;;;;;15.27;4.30;;;17.70;99.90;;;;;;4248130;27;20047;-83
2023/10/11 09:30:19;;;;;;;9.27;3.95;;;17.80;99.90;;;;;;4244780;27;20043;-83
2023/10/11 09:32:31;;;;;;;9.75;4.80;;;17.80;99.90;;;;;;4231023;28;20048;-83
2023/10/11 09:34:32;;;;;;;11.40;4.53;;;17.80;99.90;;;;;;4233765;27;20027;-83
2023/10/11 09:36:33;;;;;;;7.22;4.03;;;17.90;99.90;;;;;;4212652;28;20062;-83
2023/10/11 09:38:41;;;;;;;12.52;3.80;;;18.00;99.90;;;;;;4230628;28;20044;-84
2023/10/11 09:40:42;;;;;;;8.63;3.67;;;18.00;99.90;;;;;;4230416;28;20047;-84
2023/10/11 09:42:43;;;;;;;13.32;3.83;;;18.00;99.90;;;;;;4230951;28;20031;-84
2023/10/11 09:44:46;;;;;;;13.05;4.47;;;18.00;99.90;;;;;;4230951;28;20044;-83
2023/10/11 09:46:48;;;;;;;8.00;3.30;;;18.00;99.90;;;;;;4231157;28;20044;-83
2023/10/11 09:48:49;;;;;;;9.70;4.65;;;18.10;99.90;;;;;;4243444;28;20049;-83
2023/10/11 09:50:50;;;;;;;8.45;3.67;;;18.10;99.90;;;;;;4247757;28;20440;-82
2023/10/11 09:52:52;;;;;;;12.45;4.30;;;18.10;99.90;;;;;;4247313;28;20077;-83
2023/10/11 09:54:53;;;;;;;14.80;5.15;;;18.10;99.90;;;;;;4247851;28;20471;-83
2023/10/11 09:57:00;;;;;;;9.68;3.58;;;18.10;99.90;;;;;;4224473;28;20047;-82
2023/10/11 09:59:22;;;;;;;11.20;3.55;;;18.10;99.90;;;;;;4234190;28;20062;-83
2023/10/11 10:01:38;;;;;;;11.07;3.70;;;18.00;99.90;;;;;;4230750;28;20527;-83
2023/10/11 10:03:47;;;;;;;9.25;3.75;;;18.10;99.90;;;;;;4230624;28;20122;-83
2023/10/11 10:06:07;;;;;;;9.85;4.57;;;18.10;99.90;;;;;;4238543;28;20055;-83
2023/10/11 10:08:17;;;;;;;11.80;4.32;;;18.20;99.90;;;;;;4247564;28;20108;-83
2023/10/11 10:10:26;;;;;;;6.88;4.32;;;18.20;99.90;;;;;;4247863;27;20536;-84
2023/10/11 10:12:40;;;;;;;10.55;4.10;;;18.30;99.90;;;;;;4251044;27;20038;-84
2023/10/11 10:14:41;;;;;;;11.20;4.30;;;18.40;99.90;;;;;;4250503;27;20039;-83
2023/10/11 10:17:10;;;;;;;9.80;3.78;;;18.60;99.90;;;;;;4250974;27;20074;-84
2023/10/11 10:19:34;;;;;;;;;;;18.40;99.90;;;;;;4251493;27;20047;-83
2023/10/11 10:22:16;;;;;;;10.82;3.20;;;18.60;99.90;;;;;;4250956;27;19919;-83
2023/10/11 10:24:29;;;;;;;11.02;3.80;;;18.70;99.90;;;;;;4241020;27;20058;-83
2023/10/11 10:26:30;;;;;;;9.50;4.07;;;18.60;99.90;;;;;;4251088;27;20043;-83
2023/10/11 10:28:36;;;;;;;10.70;4.60;;;18.60;99.90;;;;;;4250888;27;20039;-83
2023/10/11 10:31:17;;;;;;;10.50;3.60;;;18.50;99.90;;;;;;4250883;27;20050;-83
2023/10/11 10:33:23;;;;;;;10.73;3.33;;;18.60;99.90;;;;;;4198040;28;20076;-83
2023/10/11 10:35:25;;;;;;;11.77;4.28;;;18.50;99.90;;;;;;4181402;28;20044;-83
2023/10/11 10:37:47;;;;;;;14.13;4.25;;;18.60;99.90;;;;;;4197734;28;20127;-82
2023/10/11 10:40:26;;;;;;;10.57;4.43;;;18.70;99.90;;;;;;4250686;27;20365;-84
2023/10/11 10:42:27;;;;;;;8.02;4.05;;;18.70;99.90;;;;;;4246279;27;20032;-83
2023/10/11 10:44:29;;;;;;;9.80;3.63;;;19.70;99.90;;;;;;4232029;28;20493;-83
2023/10/11 10:46:31;;;;;;;10.50;3.28;;;19.10;99.90;;;;;;4232085;28;20138;-83
2023/10/11 10:48:39;;;;;;;9.40;3.25;;;19.20;99.90;;;;;;4250427;27;20087;-84
2023/10/11 10:51:04;;;;;;;5.80;3.50;;;19.30;99.90;;;;;;4249647;27;20058;-83
2023/10/11 10:53:04;;;;;;;10.18;3.65;;;19.70;99.90;;;;;;4225456;28;20051;-84
2023/10/11 10:55:07;;;;;;;8.32;3.17;;;19.30;99.90;;;;;;4244262;27;20093;-83
2023/10/11 10:57:09;;;;;;;8.65;3.10;;;19.60;99.90;;;;;;4237869;27;20088;-83
2023/10/11 10:59:14;;;;;;;9.88;2.85;;;19.60;99.90;;;;;;4249617;27;20043;-82
2023/10/11 11:01:26;;;;;;;13.57;4.18;;;19.50;99.90;;;;;;4250183;27;20050;-82
2023/10/11 11:03:32;;;;;;;9.35;2.80;;;19.50;99.90;;;;;;4249939;27;20376;-83
2023/10/11 11:05:39;;;;;;;9.20;2.92;;;19.80;99.90;;;;;;4250248;27;20400;-83
2023/10/11 11:07:47;;;;;;;8.25;2.92;;;19.40;99.90;;;;;;4232215;28;20043;-82
2023/10/11 11:09:54;;;;;;;7.32;2.60;;;19.50;99.90;;;;;;4245707;27;20056;-83
2023/10/11 11:12:14;;;;;;;7.20;2.67;;;19.50;99.90;;;;;;4232683;28;20043;-83
2023/10/11 11:14:23;;;;;;;9.55;3.33;;;19.70;99.90;;;;;;4232567;28;20047;-84
2023/10/11 11:16:26;;;;;;;5.70;2.63;;;19.60;99.90;;;;;;4232935;28;20043;-84
2023/10/11 11:18:31;;;;;;;5.95;2.78;;;19.60;99.90;;;;;;4233051;28;20048;-84